Time;durP1;ratioP1;P1;durP2;ratioP2;P2;SDS_P1;SDS_P2;PMS_P1;PMS_P2;Temp;Humidity;BMP_temperature;BMP_pressure;BME280_temperature;BME280_humidity;BME280_pressure;Samples;Min_cycle;Max_cycle;Signal;HPM_P1;HPM_P2
2023/06/20 00:02:21;;;;;;;8.80;6.28;;;22.10;72.20;;;;;;4918178;28;90603;-82
2023/06/20 00:04:47;;;;;;;8.05;5.95;;;22.00;73.90;;;;;;4918354;28;91302;-82
2023/06/20 00:07:13;;;;;;;8.13;5.53;;;22.00;73.40;;;;;;4918598;28;91720;-83
2023/06/20 00:09:39;;;;;;;9.40;5.50;;;22.00;73.40;;;;;;4918719;28;93687;-82
2023/06/20 00:12:04;;;;;;;10.63;6.38;;;21.90;73.80;;;;;;4919307;28;89330;-82
2023/06/20 00:14:31;;;;;;;7.35;5.35;;;21.90;73.40;;;;;;4917640;28;93724;-82
2023/06/20 00:16:59;;;;;;;8.32;6.30;;;21.90;73.60;;;;;;4918628;28;92203;-82
2023/06/20 00:19:27;;;;;;;10.02;5.65;;;21.90;74.20;;;;;;4915334;28;88256;-82
2023/06/20 00:21:52;;;;;;;9.70;6.30;;;21.90;74.20;;;;;;4917939;28;88974;-82
2023/06/20 00:24:18;;;;;;;9.27;5.70;;;21.90;74.70;;;;;;4918365;28;91082;-82
2023/06/20 00:26:44;;;;;;;8.43;5.25;;;21.80;75.40;;;;;;4918940;28;91488;-82
2023/06/20 00:29:09;;;;;;;8.45;6.18;;;21.80;76.60;;;;;;4918843;28;87555;-83
2023/06/20 00:31:36;;;;;;;7.70;5.55;;;21.80;75.70;;;;;;4919114;28;89829;-82
2023/06/20 00:34:02;;;;;;;9.43;5.53;;;21.70;75.40;;;;;;4917639;28;91319;-82
2023/06/20 00:36:28;;;;;;;7.22;5.85;;;21.70;75.60;;;;;;4918440;28;91115;-81
2023/06/20 00:38:54;;;;;;;9.35;5.95;;;21.70;76.00;;;;;;4919350;28;88497;-82
2023/06/20 00:41:23;;;;;;;8.15;5.95;;;21.70;75.80;;;;;;4918381;28;89887;-82
2023/06/20 00:43:49;;;;;;;9.50;6.05;;;21.60;76.40;;;;;;4931472;28;95358;-82
2023/06/20 00:46:25;;;;;;;9.55;5.95;;;21.60;76.70;;;;;;4937216;28;90866;-82
2023/06/20 00:48:51;;;;;;;9.27;6.15;;;21.60;76.40;;;;;;4970271;28;87536;-83
2023/06/20 00:51:19;;;;;;;8.88;5.60;;;21.60;75.80;;;;;;4969418;28;90533;-82
2023/06/20 00:53:46;;;;;;;8.25;5.40;;;21.60;76.10;;;;;;4938131;28;90450;-82
2023/06/20 00:56:12;;;;;;;10.40;5.97;;;21.60;76.10;;;;;;4969869;28;91210;-82
2023/06/20 00:58:38;;;;;;;7.72;5.45;;;21.50;75.90;;;;;;4968605;28;87237;-82
2023/06/20 01:01:04;;;;;;;6.63;5.57;;;21.50;76.30;;;;;;4969927;28;90851;-82
2023/06/20 01:03:31;;;;;;;7.57;5.55;;;21.50;76.80;;;;;;4936730;28;92537;-82
2023/06/20 01:06:20;;;;;;;6.68;5.30;;;21.50;77.00;;;;;;4970511;28;92091;-83
2023/06/20 01:08:57;;;;;;;6.30;5.32;;;21.50;76.80;;;;;;4969563;28;89675;-83
2023/06/20 01:11:52;;;;;;;7.35;5.65;;;21.40;76.90;;;;;;4937056;28;90708;-81
2023/06/20 01:14:39;;;;;;;13.25;6.80;;;21.40;77.40;;;;;;4928149;28;90470;-82
2023/06/20 01:17:20;;;;;;;10.88;6.20;;;21.40;78.70;;;;;;4952963;28;91470;-82
2023/06/20 01:20:10;;;;;;;8.05;5.90;;;21.30;79.50;;;;;;4953961;28;87438;-83
2023/06/20 01:22:56;;;;;;;8.38;6.47;;;21.30;78.00;;;;;;4969775;28;90574;-82
2023/06/20 01:26:00;;;;;;;7.45;4.82;;;21.20;78.70;;;;;;4969516;28;90488;-83
2023/06/20 01:29:01;;;;;;;10.13;6.20;;;21.30;79.00;;;;;;4938425;28;87913;-83
2023/06/20 01:31:35;;;;;;;8.38;5.50;;;21.20;79.10;;;;;;4969354;28;88395;-82
2023/06/20 01:34:08;;;;;;;7.90;5.60;;;21.20;78.60;;;;;;4936138;28;89940;-83
2023/06/20 01:36:39;;;;;;;8.60;6.05;;;21.20;78.80;;;;;;4936038;28;90584;-83
2023/06/20 01:39:13;;;;;;;9.63;5.95;;;21.20;79.00;;;;;;4937476;28;91430;-83
2023/06/20 01:41:41;;;;;;;8.65;5.85;;;21.20;79.30;;;;;;4936886;28;90128;-82
2023/06/20 01:44:09;;;;;;;9.75;5.82;;;21.20;79.70;;;;;;4936327;28;90059;-82
2023/06/20 01:46:35;;;;;;;9.40;6.43;;;21.10;80.10;;;;;;4968475;28;92016;-82
2023/06/20 01:49:02;;;;;;;8.15;6.35;;;21.20;80.60;;;;;;4968979;28;91528;-82
2023/06/20 01:51:30;;;;;;;9.80;6.32;;;21.10;81.20;;;;;;4968742;28;87527;-82
2023/06/20 01:53:59;;;;;;;10.68;5.90;;;21.10;81.40;;;;;;4938451;28;88513;-82
2023/06/20 01:56:26;;;;;;;9.05;5.32;;;21.10;81.70;;;;;;4935717;28;92351;-82
2023/06/20 01:58:53;;;;;;;10.07;5.28;;;21.10;82.30;;;;;;4968606;28;93000;-82
2023/06/20 02:01:20;;;;;;;5.90;4.60;;;21.00;82.60;;;;;;4959190;28;89649;-82
2023/06/20 02:03:47;;;;;;;8.32;4.50;;;21.00;83.30;;;;;;4949300;28;89262;-82
2023/06/20 02:06:15;;;;;;;7.68;4.10;;;20.90;83.60;;;;;;4917243;28;91891;-82
2023/06/20 02:08:42;;;;;;;5.30;3.58;;;20.90;83.70;;;;;;4928142;28;90988;-82
2023/06/20 02:11:09;;;;;;;6.38;3.20;;;20.90;83.50;;;;;;4927586;28;87929;-83
2023/06/20 02:13:36;;;;;;;4.45;2.78;;;20.90;83.50;;;;;;4929007;28;89081;-82
2023/06/20 02:16:06;;;;;;;4.93;2.70;;;20.80;83.90;;;;;;4928638;28;91601;-81
2023/06/20 02:18:32;;;;;;;4.65;2.65;;;20.80;83.70;;;;;;4918040;28;87811;-82
2023/06/20 02:21:06;;;;;;;4.63;3.22;;;20.80;83.80;;;;;;4917055;28;88398;-82
2023/06/20 02:23:34;;;;;;;8.75;2.85;;;20.80;83.60;;;;;;4932246;28;90478;-82
2023/06/20 02:26:08;;;;;;;7.78;2.40;;;20.80;83.80;;;;;;4922821;28;91592;-82
2023/06/20 02:28:42;;;;;;;4.57;2.83;;;20.80;83.80;;;;;;4928218;28;95224;-83
2023/06/20 02:31:13;;;;;;;4.57;2.65;;;20.80;83.80;;;;;;4969133;28;87747;-82
2023/06/20 02:33:41;;;;;;;4.20;2.60;;;20.80;83.80;;;;;;4935270;28;89347;-82
2023/06/20 02:36:08;;;;;;;3.63;2.35;;;20.80;83.80;;;;;;4969424;28;91193;-82
2023/06/20 02:38:34;;;;;;;4.05;2.50;;;20.80;83.90;;;;;;4917045;28;95985;-82
2023/06/20 02:41:00;;;;;;;2.75;2.53;;;20.80;83.10;;;;;;4916231;28;87470;-83
2023/06/20 02:43:26;;;;;;;4.38;2.72;;;20.80;82.80;;;;;;4918042;28;87985;-82
2023/06/20 02:45:58;;;;;;;3.40;2.35;;;20.90;83.20;;;;;;4915687;28;92715;-82
2023/06/20 02:48:47;;;;;;;2.88;2.47;;;20.80;83.50;;;;;;4932385;28;92390;-83
2023/06/20 02:51:23;;;;;;;4.50;2.78;;;20.80;83.80;;;;;;4909237;28;87844;-83
2023/06/20 02:54:26;;;;;;;3.67;2.53;;;20.80;84.10;;;;;;4917007;28;91390;-82
2023/06/20 02:56:55;;;;;;;4.20;2.72;;;20.80;84.70;;;;;;4916118;28;96418;-81
2023/06/20 02:59:26;;;;;;;5.20;2.80;;;20.70;85.20;;;;;;4916129;28;91482;-82
2023/06/20 03:01:57;;;;;;;7.43;2.97;;;20.70;85.50;;;;;;4916237;28;87860;-81
2023/06/20 03:04:27;;;;;;;5.32;3.60;;;20.60;86.00;;;;;;4932624;28;90379;-82
2023/06/20 03:06:53;;;;;;;4.30;3.30;;;20.60;86.50;;;;;;4932083;28;91613;-83
2023/06/20 03:09:20;;;;;;;5.03;3.35;;;20.60;86.50;;;;;;4916357;28;92045;-83
2023/06/20 03:11:46;;;;;;;5.43;3.45;;;20.50;87.10;;;;;;4908225;28;88518;-82
2023/06/20 03:14:15;;;;;;;6.57;3.70;;;20.50;86.90;;;;;;4915186;28;89096;-82
2023/06/20 03:16:43;;;;;;;4.60;3.70;;;20.50;87.60;;;;;;4915270;28;91390;-82
2023/06/20 03:19:12;;;;;;;4.60;3.63;;;20.40;87.40;;;;;;4915995;28;90104;-82
2023/06/20 03:21:39;;;;;;;4.75;3.60;;;20.40;87.80;;;;;;4915794;28;87451;-83
2023/06/20 03:24:05;;;;;;;5.55;3.00;;;20.40;87.90;;;;;;4908286;28;89892;-83
2023/06/20 03:26:33;;;;;;;5.50;3.80;;;20.40;87.80;;;;;;4916016;28;90977;-83
2023/06/20 03:28:58;;;;;;;4.40;3.33;;;20.40;87.80;;;;;;4915395;28;90964;-82
2023/06/20 03:31:24;;;;;;;7.82;3.63;;;20.40;88.20;;;;;;4916571;28;87810;-82
2023/06/20 03:33:50;;;;;;;6.22;3.22;;;20.40;88.00;;;;;;4915240;28;90044;-82
2023/06/20 03:36:15;;;;;;;8.27;4.35;;;20.40;87.70;;;;;;4915148;28;92272;-82
2023/06/20 03:38:42;;;;;;;5.75;3.50;;;20.50;88.40;;;;;;4918171;28;88301;-82
2023/06/20 03:41:08;;;;;;;4.20;3.45;;;20.50;88.00;;;;;;4931771;28;87789;-82
2023/06/20 03:43:33;;;;;;;5.60;3.35;;;20.50;88.40;;;;;;4915825;28;90412;-82
2023/06/20 03:45:59;;;;;;;5.68;3.17;;;20.50;88.20;;;;;;4914811;28;91714;-82
2023/06/20 03:48:25;;;;;;;4.43;3.70;;;20.50;87.60;;;;;;4915890;28;90658;-83
2023/06/20 03:50:51;;;;;;;5.93;3.28;;;20.50;87.20;;;;;;4916383;28;87740;-82
2023/06/20 03:53:16;;;;;;;3.78;3.05;;;20.50;87.50;;;;;;4915952;28;90173;-82
2023/06/20 03:55:42;;;;;;;5.80;4.00;;;20.60;87.20;;;;;;4914844;28;91751;-82
2023/06/20 03:58:08;;;;;;;4.63;3.70;;;20.60;88.00;;;;;;4915241;28;91513;-82
2023/06/20 04:00:33;;;;;;;5.85;3.38;;;20.60;87.50;;;;;;4915005;28;88886;-82
2023/06/20 04:02:59;;;;;;;7.57;3.95;;;20.60;87.20;;;;;;4915260;28;90464;-82
2023/06/20 04:05:25;;;;;;;5.45;3.53;;;20.60;88.30;;;;;;4915526;28;91725;-83
2023/06/20 04:07:51;;;;;;;6.35;3.90;;;20.60;88.10;;;;;;4914864;28;91423;-82
2023/06/20 04:10:16;;;;;;;6.88;3.58;;;20.60;88.30;;;;;;4915478;28;87269;-82
2023/06/20 04:12:42;;;;;;;4.63;3.35;;;20.60;88.00;;;;;;4916801;28;87798;-83
2023/06/20 04:15:09;;;;;;;10.35;4.10;;;20.60;88.30;;;;;;4915860;28;91162;-82
2023/06/20 04:17:37;;;;;;;6.72;4.32;;;20.60;88.70;;;;;;4916109;28;96458;-82
2023/06/20 04:20:08;;;;;;;5.57;3.85;;;20.60;88.80;;;;;;4914950;28;87768;-83
2023/06/20 04:22:34;;;;;;;5.47;3.75;;;20.60;88.60;;;;;;4942125;28;92998;-82
2023/06/20 04:25:00;;;;;;;6.20;3.50;;;20.60;88.90;;;;;;4967183;28;92553;-82
2023/06/20 04:27:25;;;;;;;4.05;3.65;;;20.60;89.00;;;;;;4968412;28;92004;-81
2023/06/20 04:29:51;;;;;;;6.72;4.30;;;20.60;89.30;;;;;;4971112;28;87791;-80
2023/06/20 04:32:18;;;;;;;5.55;4.03;;;20.60;89.50;;;;;;4970170;28;90356;-82
2023/06/20 04:34:43;;;;;;;6.65;3.50;;;20.50;89.70;;;;;;4969790;28;91271;-81
2023/06/20 04:37:09;;;;;;;6.78;4.00;;;20.50;89.80;;;;;;4929987;28;91131;-83
2023/06/20 04:39:35;;;;;;;4.60;3.50;;;20.50;89.60;;;;;;4970961;28;87135;-81
2023/06/20 04:42:01;;;;;;;6.18;3.55;;;20.50;89.50;;;;;;4970805;28;89432;-81
2023/06/20 04:44:27;;;;;;;5.78;3.90;;;20.50;89.50;;;;;;4969621;28;91101;-83
2023/06/20 04:46:55;;;;;;;5.47;3.72;;;20.60;89.30;;;;;;4970494;28;91047;-83
2023/06/20 04:49:21;;;;;;;6.38;3.40;;;20.60;89.50;;;;;;4969667;28;88749;-84
2023/06/20 04:51:47;;;;;;;5.75;3.88;;;20.60;89.00;;;;;;4970101;28;89851;-82
2023/06/20 04:54:13;;;;;;;7.93;3.92;;;20.70;90.00;;;;;;4970484;28;91398;-83
2023/06/20 04:56:40;;;;;;;5.80;4.15;;;20.60;89.70;;;;;;4970840;28;91244;-82
2023/06/20 04:59:06;;;;;;;7.22;3.88;;;20.70;90.00;;;;;;4970734;28;87711;-82
2023/06/20 05:01:32;;;;;;;6.50;3.67;;;20.70;89.80;;;;;;4969573;28;90078;-82
2023/06/20 05:03:58;;;;;;;5.90;3.90;;;20.80;89.80;;;;;;4936786;28;90985;-83
2023/06/20 05:06:24;;;;;;;6.72;4.22;;;20.80;89.80;;;;;;4970204;28;90490;-81
2023/06/20 05:08:52;;;;;;;7.25;3.97;;;20.80;90.00;;;;;;4970006;28;87623;-83
2023/06/20 05:11:17;;;;;;;6.78;3.78;;;20.80;89.60;;;;;;4969362;28;90661;-82
2023/06/20 05:13:43;;;;;;;5.10;3.70;;;20.80;89.80;;;;;;4968904;28;91515;-83
2023/06/20 05:16:09;;;;;;;5.55;3.90;;;20.80;89.80;;;;;;4969323;28;92370;-83
2023/06/20 05:18:34;;;;;;;5.72;3.85;;;20.90;89.80;;;;;;4969431;28;87632;-82
2023/06/20 05:21:00;;;;;;;5.85;3.72;;;20.90;89.90;;;;;;4970277;28;89154;-83
2023/06/20 05:23:26;;;;;;;5.03;3.35;;;20.90;90.00;;;;;;4969824;28;91864;-79
2023/06/20 05:25:52;;;;;;;7.65;3.67;;;20.90;89.80;;;;;;4969430;28;91696;-83
2023/06/20 05:28:18;;;;;;;3.97;3.30;;;20.90;89.50;;;;;;4969488;28;87556;-83
2023/06/20 05:30:43;;;;;;;5.13;3.60;;;21.00;90.00;;;;;;4969045;28;90353;-85
2023/06/20 05:33:09;;;;;;;4.30;3.30;;;21.00;89.60;;;;;;4937955;28;90305;-85
2023/06/20 05:35:34;;;;;;;8.48;3.78;;;21.10;89.50;;;;;;4933438;28;91272;-87
2023/06/20 05:38:00;;;;;;;7.50;3.55;;;21.10;89.70;;;;;;4922299;28;88477;-89
2023/06/20 05:40:26;;;;;;;4.95;3.15;;;21.10;89.50;;;;;;4918452;28;89190;-87
2023/06/20 05:42:52;;;;;;;4.93;4.00;;;21.20;89.60;;;;;;4917952;28;91380;-88
2023/06/20 05:45:17;;;;;;;5.13;3.40;;;21.30;88.80;;;;;;4917981;28;91027;-87
2023/06/20 05:47:46;;;;;;;5.50;3.63;;;21.30;88.70;;;;;;4919349;28;87905;-85
2023/06/20 05:50:11;;;;;;;4.93;3.35;;;21.40;88.50;;;;;;4916650;28;90960;-87
2023/06/20 05:52:37;;;;;;;7.15;3.95;;;21.40;88.30;;;;;;4916740;28;89431;-86
2023/06/20 05:55:04;;;;;;;7.00;2.95;;;21.50;88.00;;;;;;4917618;28;91409;-87
2023/06/20 05:57:30;;;;;;;3.38;3.08;;;21.50;87.70;;;;;;4910686;28;87690;-86
2023/06/20 05:59:55;;;;;;;6.38;3.38;;;21.60;87.20;;;;;;4918678;28;90555;-86
2023/06/20 06:02:21;;;;;;;6.00;2.90;;;21.60;87.30;;;;;;4916762;28;91867;-87
2023/06/20 06:04:48;;;;;;;4.05;2.85;;;21.60;87.20;;;;;;4917170;28;90977;-87
2023/06/20 06:07:14;;;;;;;10.05;3.28;;;21.70;86.80;;;;;;4917603;28;87838;-87
2023/06/20 06:09:40;;;;;;;5.78;2.92;;;21.80;86.90;;;;;;4908615;28;90288;-87
2023/06/20 06:12:06;;;;;;;5.97;3.00;;;21.90;86.50;;;;;;4917555;28;91486;-86
2023/06/20 06:14:32;;;;;;;5.40;2.78;;;21.90;86.60;;;;;;4917427;28;90852;-84
2023/06/20 06:16:58;;;;;;;5.53;2.95;;;22.10;85.40;;;;;;4917250;28;87998;-83
2023/06/20 06:19:24;;;;;;;3.95;2.80;;;22.10;84.80;;;;;;4917061;28;88133;-86
2023/06/20 06:21:50;;;;;;;4.72;2.90;;;22.20;84.80;;;;;;4917140;28;90503;-86
2023/06/20 06:24:16;;;;;;;5.15;2.53;;;22.30;84.90;;;;;;4916620;28;91935;-86
2023/06/20 06:26:41;;;;;;;5.00;2.75;;;22.40;84.00;;;;;;4917730;28;88161;-83
2023/06/20 06:29:07;;;;;;;4.32;3.10;;;22.50;83.60;;;;;;4917098;28;90007;-83
2023/06/20 06:34:00;;;;;;;4.97;2.60;;;22.70;82.20;;;;;;4916701;28;90302;-83
2023/06/20 06:36:26;;;;;;;8.75;3.05;;;22.70;82.50;;;;;;4917353;28;87130;-81
2023/06/20 06:38:52;;;;;;;7.32;3.45;;;22.80;82.50;;;;;;4918106;28;90346;-83
2023/06/20 06:41:18;;;;;;;5.43;3.05;;;22.90;81.50;;;;;;4908350;28;91734;-84
2023/06/20 06:43:45;;;;;;;3.63;2.90;;;23.00;81.00;;;;;;4917251;28;90973;-83
2023/06/20 06:46:11;;;;;;;3.47;2.30;;;23.00;80.50;;;;;;4932916;28;87799;-84
2023/06/20 06:48:37;;;;;;;3.15;2.80;;;23.10;80.80;;;;;;4916620;28;89292;-83
2023/06/20 06:51:03;;;;;;;3.22;2.90;;;23.20;80.00;;;;;;4916133;28;92259;-83
2023/06/20 06:53:29;;;;;;;3.25;2.75;;;23.30;79.10;;;;;;4907927;28;92281;-83
2023/06/20 06:55:55;;;;;;;4.38;2.78;;;23.30;79.10;;;;;;4916953;28;88006;-82
2023/06/20 06:58:20;;;;;;;3.55;2.58;;;23.40;78.60;;;;;;4916684;28;89343;-84
2023/06/20 07:00:46;;;;;;;5.47;2.47;;;23.60;78.50;;;;;;4916836;28;90477;-82
2023/06/20 07:03:12;;;;;;;17.27;3.78;;;23.70;78.80;;;;;;4916650;28;91246;-83
2023/06/20 07:05:37;;;;;;;6.55;2.85;;;23.80;79.50;;;;;;4917373;28;87346;-83
2023/06/20 07:08:04;;;;;;;3.70;2.95;;;24.00;78.20;;;;;;4916543;28;89326;-84
2023/06/20 07:10:29;;;;;;;5.95;2.60;;;24.20;76.80;;;;;;4916608;28;90757;-83
2023/06/20 07:12:55;;;;;;;7.50;3.10;;;24.20;75.90;;;;;;4916656;28;90420;-82
2023/06/20 07:15:20;;;;;;;3.33;2.30;;;24.30;75.20;;;;;;4916132;28;88736;-84
2023/06/20 07:17:46;;;;;;;6.00;2.83;;;24.30;75.40;;;;;;4949195;28;90346;-84
2023/06/20 07:20:12;;;;;;;4.03;2.42;;;24.50;75.60;;;;;;4915785;28;90406;-88
2023/06/20 07:22:37;;;;;;;9.35;2.60;;;24.60;74.50;;;;;;4915069;28;90111;-84
2023/06/20 07:25:04;;;;;;;4.78;3.15;;;24.70;74.20;;;;;;4915760;28;88208;-82
2023/06/20 07:27:29;;;;;;;3.97;2.50;;;24.90;73.60;;;;;;4917343;28;88326;-84
2023/06/20 07:29:55;;;;;;;4.78;2.70;;;24.90;73.00;;;;;;4917039;28;90586;-83
2023/06/20 07:32:21;;;;;;;5.13;2.60;;;25.00;73.00;;;;;;4916044;28;91806;-85
2023/06/20 07:34:48;;;;;;;7.63;2.90;;;25.10;73.20;;;;;;4916276;28;87477;-84
2023/06/20 07:37:14;;;;;;;3.60;2.50;;;25.30;72.50;;;;;;4915993;28;90351;-83
2023/06/20 07:39:42;;;;;;;6.18;2.75;;;25.40;71.50;;;;;;4916041;28;92416;-84
2023/06/20 07:42:09;;;;;;;4.90;3.10;;;25.50;71.50;;;;;;4916293;28;92126;-84
2023/06/20 07:44:35;;;;;;;9.35;2.63;;;25.50;70.90;;;;;;4932692;28;88585;-84
2023/06/20 07:47:01;;;;;;;2.60;2.40;;;25.60;71.60;;;;;;4916008;28;89527;-84
2023/06/20 07:49:28;;;;;;;3.85;2.45;;;25.70;70.50;;;;;;4907599;28;91690;-83
2023/06/20 07:51:53;;;;;;;8.10;2.33;;;25.70;69.60;;;;;;4915368;28;90731;-83
2023/06/20 07:54:19;;;;;;;5.50;2.60;;;25.70;69.90;;;;;;4916406;28;87256;-84
2023/06/20 07:56:44;;;;;;;4.05;2.60;;;25.80;70.20;;;;;;4916805;28;88729;-84
2023/06/20 07:59:10;;;;;;;4.35;2.00;;;25.90;69.20;;;;;;4915655;28;90382;-83
2023/06/20 08:01:36;;;;;;;6.10;2.08;;;25.90;68.80;;;;;;4917223;28;90156;-84
2023/06/20 08:04:02;;;;;;;3.20;2.13;;;26.00;67.80;;;;;;4918910;28;88311;-84
2023/06/20 08:06:27;;;;;;;3.10;2.03;;;26.00;69.00;;;;;;4918887;28;90561;-84
2023/06/20 08:08:53;;;;;;;7.95;2.40;;;26.10;68.60;;;;;;4919038;28;90611;-85
2023/06/20 08:11:25;;;;;;;3.20;2.40;;;26.20;68.80;;;;;;4917910;28;91254;-84
2023/06/20 08:13:51;;;;;;;12.85;2.63;;;26.40;68.20;;;;;;4919333;28;87475;-84
2023/06/20 08:16:17;;;;;;;3.95;2.05;;;26.40;67.80;;;;;;4918925;28;89275;-84
2023/06/20 08:18:43;;;;;;;4.38;2.35;;;26.50;66.70;;;;;;4918623;28;91073;-84
2023/06/20 08:21:08;;;;;;;3.28;1.83;;;26.50;67.60;;;;;;4919843;28;91773;-84
2023/06/20 08:23:34;;;;;;;5.53;2.13;;;26.60;66.30;;;;;;4919191;28;88502;-84
2023/06/20 08:26:00;;;;;;;4.03;2.83;;;26.80;65.80;;;;;;4918668;28;89193;-84
2023/06/20 08:28:26;;;;;;;4.80;2.60;;;26.80;66.40;;;;;;4918251;28;92428;-83
2023/06/20 08:30:52;;;;;;;2.70;2.30;;;26.80;66.90;;;;;;4918457;28;92218;-83
2023/06/20 08:33:19;;;;;;;4.32;3.03;;;26.80;65.10;;;;;;4918571;28;87575;-83
2023/06/20 08:35:46;;;;;;;4.32;2.22;;;26.90;66.00;;;;;;4919288;28;90296;-83
2023/06/20 08:38:11;;;;;;;8.27;2.90;;;27.00;66.30;;;;;;4934914;28;91566;-83
2023/06/20 08:40:37;;;;;;;3.45;2.42;;;27.20;66.70;;;;;;4918879;28;90779;-82
2023/06/20 08:43:03;;;;;;;4.80;2.28;;;27.30;65.20;;;;;;4918702;28;87841;-82
2023/06/20 08:45:29;;;;;;;4.57;2.08;;;27.50;67.00;;;;;;4918037;28;89131;-83
2023/06/20 08:48:01;;;;;;;3.08;2.25;;;27.60;63.80;;;;;;4918562;28;91053;-83
2023/06/20 08:50:27;;;;;;;2.72;1.80;;;27.50;62.60;;;;;;4918071;28;89884;-82
2023/06/20 08:52:55;;;;;;;2.65;1.95;;;27.50;64.30;;;;;;4917997;28;88200;-83
2023/06/20 08:55:22;;;;;;;2.85;1.98;;;27.60;63.00;;;;;;4933356;28;89027;-83
2023/06/20 08:57:48;;;;;;;3.40;2.20;;;27.60;63.40;;;;;;4917000;28;90373;-82
2023/06/20 09:00:20;;;;;;;9.98;3.28;;;27.80;63.80;;;;;;4918120;28;89910;-83
2023/06/20 09:02:50;;;;;;;2.92;2.30;;;28.00;63.60;;;;;;4918804;28;87472;-82
2023/06/20 09:05:16;;;;;;;4.78;2.40;;;28.00;62.10;;;;;;4908239;28;89532;-83
2023/06/20 09:07:42;;;;;;;2.63;2.42;;;28.10;62.80;;;;;;4918036;28;90479;-84
2023/06/20 09:10:10;;;;;;;2.10;1.90;;;28.10;62.20;;;;;;4918223;28;91253;-83
2023/06/20 09:12:59;;;;;;;8.10;2.55;;;28.10;61.50;;;;;;4917312;28;87173;-81
2023/06/20 09:15:26;;;;;;;9.60;3.15;;;28.20;63.10;;;;;;4917515;28;90151;-82
2023/06/20 09:17:58;;;;;;;6.55;2.33;;;28.30;63.60;;;;;;4918189;28;91340;-82
2023/06/20 09:20:28;;;;;;;4.50;2.10;;;28.60;62.30;;;;;;4917650;28;91859;-83
2023/06/20 09:22:54;;;;;;;3.83;2.00;;;28.80;61.40;;;;;;4933668;28;87607;-83
2023/06/20 09:25:22;;;;;;;4.45;1.90;;;28.90;60.00;;;;;;4917641;28;88993;-88
2023/06/20 09:27:48;;;;;;;4.97;1.98;;;29.00;59.50;;;;;;4918152;28;91213;-83
2023/06/20 09:30:13;;;;;;;2.53;2.00;;;29.10;59.80;;;;;;4918004;28;89834;-81
2023/06/20 09:32:40;;;;;;;2.03;1.80;;;29.10;59.70;;;;;;4918765;28;88186;-82
2023/06/20 09:35:09;;;;;;;2.20;2.00;;;29.20;58.50;;;;;;4909773;28;90315;-82
2023/06/20 09:37:40;;;;;;;2.13;1.92;;;29.20;57.70;;;;;;4909404;28;92067;-82
2023/06/20 09:40:13;;;;;;;3.30;2.00;;;29.30;58.40;;;;;;4932334;28;90091;-82
2023/06/20 09:42:41;;;;;;;4.97;2.08;;;29.40;59.10;;;;;;4916399;28;88119;-82
2023/06/20 09:45:08;;;;;;;2.72;1.50;;;29.50;58.70;;;;;;4918490;28;89389;-83
2023/06/20 09:47:36;;;;;;;2.72;2.17;;;29.60;59.00;;;;;;4933577;28;90337;-83
2023/06/20 09:50:19;;;;;;;5.00;2.28;;;29.80;57.20;;;;;;4917839;28;90934;-83
2023/06/20 09:52:53;;;;;;;2.58;2.33;;;29.70;57.80;;;;;;4910379;28;87616;-83
2023/06/20 09:55:21;;;;;;;3.63;2.30;;;29.80;58.70;;;;;;4931982;28;90737;-82
2023/06/20 09:57:59;;;;;;;4.75;2.05;;;30.00;58.50;;;;;;4917029;28;91177;-84
2023/06/20 10:00:28;;;;;;;2.90;1.90;;;30.30;59.20;;;;;;4933817;28;91138;-84
2023/06/20 10:02:59;;;;;;;2.55;2.15;;;30.60;58.20;;;;;;4909797;28;87875;-83
2023/06/20 10:05:27;;;;;;;5.22;2.25;;;30.80;55.20;;;;;;4910100;28;89053;-83
2023/06/20 10:07:57;;;;;;;2.33;2.10;;;30.80;55.40;;;;;;4909176;28;92123;-83
2023/06/20 10:10:23;;;;;;;5.00;2.17;;;30.80;56.40;;;;;;4916658;28;91858;-82
2023/06/20 10:12:49;;;;;;;3.15;2.50;;;31.10;56.10;;;;;;4917523;28;87894;-83
2023/06/20 10:15:16;;;;;;;2.55;2.33;;;31.20;53.50;;;;;;4917117;28;90427;-82
2023/06/20 10:17:43;;;;;;;4.07;2.10;;;31.20;53.40;;;;;;4933041;28;91577;-82
2023/06/20 10:20:31;;;;;;;3.10;1.95;;;31.30;55.70;;;;;;4932910;28;91345;-82
2023/06/20 10:22:58;;;;;;;3.08;2.05;;;31.40;53.60;;;;;;4932240;28;90447;-83
2023/06/20 10:25:25;;;;;;;2.75;1.88;;;31.40;54.40;;;;;;4916741;28;90223;-83
2023/06/20 10:28:01;;;;;;;3.60;1.90;;;31.50;53.80;;;;;;4916467;28;91246;-83
2023/06/20 10:30:49;;;;;;;5.30;2.38;;;31.70;54.00;;;;;;4932312;28;91005;-82
2023/06/20 10:33:15;;;;;;;2.42;1.55;;;31.90;53.50;;;;;;4916894;28;88605;-83
2023/06/20 10:35:56;;;;;;;3.92;1.90;;;32.20;52.20;;;;;;4917438;28;90293;-81
2023/06/20 10:38:22;;;;;;;5.95;1.70;;;32.40;51.50;;;;;;4916461;28;91071;-84
2023/06/20 10:41:04;;;;;;;2.45;2.20;;;32.40;50.90;;;;;;4916630;28;90764;-84
2023/06/20 10:43:30;;;;;;;2.58;2.10;;;32.30;50.50;;;;;;4917166;28;87637;-82
2023/06/20 10:45:59;;;;;;;2.05;1.58;;;32.30;51.20;;;;;;4916434;28;89944;-83
2023/06/20 10:48:26;;;;;;;3.67;1.90;;;32.30;49.50;;;;;;4916931;28;90640;-86
2023/06/20 10:51:01;;;;;;;4.47;2.05;;;32.50;50.40;;;;;;4918274;28;91605;-82
2023/06/20 10:53:29;;;;;;;2.13;1.98;;;32.50;49.40;;;;;;4932391;28;87535;-83
2023/06/20 10:55:55;;;;;;;5.88;2.50;;;32.50;51.90;;;;;;4916702;28;87945;-84
2023/06/20 10:58:21;;;;;;;8.02;2.20;;;32.60;51.40;;;;;;4916435;28;92635;-81
2023/06/20 11:00:50;;;;;;;4.95;2.67;;;32.80;50.40;;;;;;4916738;28;91994;-83
2023/06/20 11:03:17;;;;;;;3.65;2.00;;;33.10;49.10;;;;;;4932807;28;88157;-83
2023/06/20 11:05:48;;;;;;;4.05;1.95;;;33.40;51.00;;;;;;4916428;28;90425;-83
2023/06/20 11:08:26;;;;;;;2.20;2.00;;;33.80;51.10;;;;;;4908549;28;91322;-81
2023/06/20 11:10:53;;;;;;;10.23;2.60;;;34.20;46.50;;;;;;4916252;28;90841;-83
2023/06/20 11:13:20;;;;;;;3.00;2.70;;;34.20;47.60;;;;;;4917896;28;93898;-82
2023/06/20 11:15:45;;;;;;;5.22;2.38;;;34.10;46.30;;;;;;4968921;28;89409;-84
2023/06/20 11:18:11;;;;;;;2.97;2.30;;;33.90;46.10;;;;;;4959305;28;89982;-83
2023/06/20 11:20:41;;;;;;;4.80;2.88;;;33.90;47.40;;;;;;4969250;28;90170;-83
2023/06/20 11:23:09;;;;;;;2.42;2.22;;;33.90;47.00;;;;;;4968374;28;88517;-84
2023/06/20 11:25:36;;;;;;;8.80;2.50;;;33.90;46.40;;;;;;4935486;28;89706;-84
2023/06/20 11:28:13;;;;;;;4.10;2.65;;;33.90;47.10;;;;;;4951813;28;91481;-84
2023/06/20 11:30:44;;;;;;;3.70;2.50;;;34.10;47.90;;;;;;4935257;28;90205;-82
2023/06/20 11:33:12;;;;;;;13.57;2.90;;;34.20;46.00;;;;;;4967776;28;87501;-82
2023/06/20 11:35:50;;;;;;;4.05;2.33;;;34.40;46.10;;;;;;4968587;28;88466;-82
2023/06/20 11:38:20;;;;;;;4.55;2.50;;;34.40;45.10;;;;;;4971775;28;90284;-82
2023/06/20 11:40:46;;;;;;;2.80;2.20;;;34.40;45.60;;;;;;4938942;28;91485;-82
2023/06/20 11:43:25;;;;;;;3.10;2.13;;;34.40;46.30;;;;;;4970058;28;88290;-84
2023/06/20 11:45:50;;;;;;;4.68;2.40;;;34.40;47.90;;;;;;4970045;28;89879;-83
2023/06/20 11:48:16;;;;;;;3.05;2.45;;;34.50;46.30;;;;;;4970603;28;91556;-81
2023/06/20 11:50:44;;;;;;;3.97;1.98;;;34.40;44.50;;;;;;4971553;28;92091;-83
2023/06/20 11:53:29;;;;;;;2.55;2.30;;;34.40;44.90;;;;;;4940016;28;87517;-83
2023/06/20 11:56:02;;;;;;;6.32;2.63;;;34.60;44.00;;;;;;4970567;28;90522;-83
2023/06/20 11:58:29;;;;;;;5.63;2.53;;;34.70;43.30;;;;;;4937434;28;90663;-83
2023/06/20 12:01:04;;;;;;;3.90;2.50;;;34.70;43.90;;;;;;4930089;28;89935;-81
2023/06/20 12:03:31;;;;;;;6.20;2.40;;;34.70;44.30;;;;;;4953911;28;87856;-84
2023/06/20 12:05:57;;;;;;;4.07;2.30;;;34.80;43.00;;;;;;4972044;28;89387;-83
2023/06/20 12:08:31;;;;;;;3.55;2.03;;;34.80;42.70;;;;;;4971307;28;90327;-83
2023/06/20 12:11:02;;;;;;;2.65;2.42;;;34.80;42.40;;;;;;4970885;28;89879;-83
2023/06/20 12:13:28;;;;;;;2.40;2.08;;;34.70;43.80;;;;;;4937468;28;88829;-83
2023/06/20 12:15:55;;;;;;;2.50;2.30;;;34.70;42.50;;;;;;4971165;28;89909;-83
2023/06/20 12:18:20;;;;;;;2.47;2.28;;;34.70;42.90;;;;;;4971365;28;90296;-84
2023/06/20 12:20:46;;;;;;;3.03;2.17;;;34.80;43.10;;;;;;4938811;28;91026;-84
2023/06/20 12:23:13;;;;;;;2.88;1.90;;;34.70;43.50;;;;;;4938704;28;87608;-83
2023/06/20 12:25:39;;;;;;;4.47;2.03;;;34.70;42.70;;;;;;4937499;28;90018;-84
2023/06/20 12:28:04;;;;;;;2.80;2.10;;;34.80;42.40;;;;;;4970779;28;90925;-82
2023/06/20 12:30:30;;;;;;;2.50;1.58;;;34.70;41.80;;;;;;4937739;28;91059;-84
2023/06/20 12:33:00;;;;;;;2.25;1.60;;;34.60;42.90;;;;;;4971060;28;87934;-84
2023/06/20 12:35:26;;;;;;;7.88;2.30;;;34.70;41.70;;;;;;4971043;28;90261;-83
2023/06/20 12:37:52;;;;;;;4.60;2.10;;;34.60;42.30;;;;;;4970088;28;91416;-83
2023/06/20 12:40:17;;;;;;;3.13;2.22;;;34.40;41.80;;;;;;4953854;28;91775;-83
2023/06/20 12:42:43;;;;;;;3.83;1.83;;;34.30;42.00;;;;;;4969315;28;87959;-83
2023/06/20 12:45:10;;;;;;;2.53;1.83;;;34.20;41.60;;;;;;4970706;28;90874;-83
2023/06/20 12:47:37;;;;;;;4.65;2.08;;;34.30;42.70;;;;;;4970638;28;90625;-84
2023/06/20 12:50:03;;;;;;;2.88;1.92;;;34.40;43.00;;;;;;4937400;28;91054;-85
2023/06/20 12:52:29;;;;;;;3.78;1.77;;;34.50;42.70;;;;;;4938554;28;90993;-85
2023/06/20 12:54:57;;;;;;;2.08;1.98;;;34.30;42.40;;;;;;4931936;28;89429;-84